Terminal Aerodrome Forecast
Issued by NWS Amarillo, TX

Home | Current Version | Previous Version | Text Only | Print | Product List | Glossary On
Versions: 1 2 3 4 5 6 7 8 9 10 11 12 13 14 15 16 17 18 19
000
FTUS44 KAMA 281720
TAFDHT
TAF
KDHT 281720Z 2818/2918 35008KT 1SM -SHRA BR BKN005 OVC015
     FM282000 06015KT P6SM OVC007
     FM290200 03018KT 4SM -TSRA BR OVC004CB
     FM290600 03015G22KT 2SM -SHRA OVC004
     FM290800 03025G35KT 5SM -SHRA OVC004=

USA.gov is the U.S. government's official web portal to all federal, state and local government web resources and services.